Time;durP1;ratioP1;P1;durP2;ratioP2;P2;SDS_P1;SDS_P2;PMS_P1;PMS_P2;Temp;Humidity;BMP_temperature;BMP_pressure;BME280_temperature;BME280_humidity;BME280_pressure;Samples;Min_cycle;Max_cycle;Signal;HPM_P1;HPM_P2
2023/08/25 00:00:37;;;;;;;0.10;0.10;;;;;;;23.65;100.00;99680.09;5056959;28;20058;-63
2023/08/25 00:03:03;;;;;;;0.10;0.10;;;;;;;23.60;100.00;99679.66;5056614;28;20032;-62
2023/08/25 00:05:29;;;;;;;0.10;0.10;;;;;;;23.56;100.00;99680.94;5059489;28;20103;-63
2023/08/25 00:07:54;;;;;;;0.00;0.00;;;;;;;23.57;100.00;99671.78;5050385;28;20033;-62
2023/08/25 00:10:20;;;;;;;0.10;0.10;;;;;;;23.56;100.00;99665.50;5052766;28;20048;-63
2023/08/25 00:12:46;;;;;;;0.10;0.10;;;;;;;23.58;100.00;99670.78;5056248;28;20178;-63
2023/08/25 00:15:12;;;;;;;0.10;0.10;;;;;;;23.55;100.00;99662.91;5084398;28;20047;-63
2023/08/25 00:17:37;;;;;;;0.10;0.10;;;;;;;23.57;100.00;99666.34;5080989;28;20109;-63
2023/08/25 00:20:05;;;;;;;0.10;0.10;;;;;;;23.57;100.00;99656.38;5088157;28;20761;-63
2023/08/25 00:22:30;;;;;;;0.10;0.10;;;;;;;23.54;100.00;99662.09;5090319;28;20479;-62
2023/08/25 00:24:56;;;;;;;0.10;0.10;;;;;;;23.54;100.00;99655.78;5087113;28;20039;-63
2023/08/25 00:27:22;;;;;;;0.10;0.10;;;;;;;23.53;100.00;99651.34;5086992;28;20027;-63
2023/08/25 00:29:48;;;;;;;0.10;0.10;;;;;;;23.51;100.00;99656.91;5070066;28;20024;-62
2023/08/25 00:32:13;;;;;;;0.10;0.10;;;;;;;23.48;100.00;99646.31;5072913;28;20522;-63
2023/08/25 00:34:39;;;;;;;0.10;0.10;;;;;;;23.43;100.00;99644.03;5089280;28;20055;-62
2023/08/25 00:37:05;;;;;;;0.10;0.10;;;;;;;23.44;100.00;99645.75;5084654;28;20024;-62
2023/08/25 00:39:31;;;;;;;0.10;0.10;;;;;;;23.46;100.00;99633.91;5069543;28;20031;-63
2023/08/25 00:41:56;;;;;;;0.10;0.10;;;;;;;23.42;100.00;99634.19;5072556;28;20368;-62
2023/08/25 00:44:22;;;;;;;0.10;0.10;;;;;;;23.44;100.00;99623.19;5070130;28;20111;-63
2023/08/25 00:46:48;;;;;;;0.10;0.10;;;;;;;23.42;100.00;99626.03;5072159;28;20024;-62
2023/08/25 00:49:14;;;;;;;0.10;0.10;;;;;;;23.35;100.00;99619.44;5069236;28;20032;-63
2023/08/25 00:51:39;;;;;;;0.10;0.10;;;;;;;23.39;100.00;99620.88;5073796;28;20043;-62
2023/08/25 00:54:07;;;;;;;0.10;0.10;;;;;;;23.36;100.00;99623.00;5089852;28;20357;-63
2023/08/25 00:56:33;;;;;;;0.10;0.10;;;;;;;23.36;100.00;99617.56;5071730;28;20027;-63
2023/08/25 00:58:59;;;;;;;0.00;0.00;;;;;;;23.38;100.00;99619.16;5069454;28;20028;-62
2023/08/25 01:01:25;;;;;;;0.10;0.10;;;;;;;23.37;100.00;99609.31;5073434;28;20072;-62
2023/08/25 01:03:51;;;;;;;0.10;0.10;;;;;;;23.36;100.00;99613.00;5089609;28;20197;-63
2023/08/25 01:06:17;;;;;;;0.10;0.10;;;;;;;23.38;100.00;99608.31;5089658;28;20579;-62
2023/08/25 01:08:43;;;;;;;0.10;0.10;;;;;;;23.39;100.00;99611.91;5088875;28;20127;-62
2023/08/25 01:11:20;;;;;;;0.10;0.10;;;;;;;23.37;100.00;99609.31;5085783;28;20032;-62
2023/08/25 01:14:09;;;;;;;0.10;0.10;;;;;;;23.36;100.00;99610.28;5088592;28;20055;-62
2023/08/25 01:17:07;;;;;;;0.10;0.10;;;;;;;23.32;100.00;99614.31;5066402;28;20051;-62
2023/08/25 01:19:54;;;;;;;0.10;0.10;;;;;;;23.32;100.00;99610.72;5037396;28;20037;-63
2023/08/25 01:22:50;;;;;;;0.10;0.10;;;;;;;23.28;100.00;99610.16;5048789;28;20028;-62
2023/08/25 01:25:29;;;;;;;0.08;0.08;;;;;;;23.22;100.00;99596.25;5051810;28;20052;-62
2023/08/25 01:28:04;;;;;;;0.10;0.10;;;;;;;23.18;100.00;99608.34;5049236;28;20086;-62
2023/08/25 01:30:30;;;;;;;0.10;0.10;;;;;;;23.16;100.00;99608.50;5048975;28;20526;-63
2023/08/25 01:32:57;;;;;;;0.10;0.10;;;;;;;23.14;100.00;99610.53;5054036;28;20021;-62
2023/08/25 01:35:56;;;;;;;0.10;0.10;;;;;;;23.09;100.00;99612.78;5056713;28;20068;-62
2023/08/25 01:38:29;;;;;;;0.10;0.10;;;;;;;23.05;100.00;99610.47;5079839;28;20060;-62
2023/08/25 01:41:11;;;;;;;0.10;0.10;;;;;;;23.04;100.00;99619.63;5070763;28;20032;-62
2023/08/25 01:43:46;;;;;;;0.10;0.10;;;;;;;23.02;100.00;99614.31;5068976;28;20058;-62
2023/08/25 01:46:15;;;;;;;0.10;0.10;;;;;;;22.99;100.00;99611.91;5066766;28;20024;-62
2023/08/25 01:48:43;;;;;;;0.10;0.10;;;;;;;22.98;100.00;99607.44;5088799;28;20028;-62
2023/08/25 01:51:09;;;;;;;0.10;0.10;;;;;;;22.96;100.00;99600.47;5073883;28;20120;-62
2023/08/25 01:53:35;;;;;;;0.10;0.10;;;;;;;22.96;100.00;99600.47;5048785;28;20029;-62
2023/08/25 01:56:01;;;;;;;0.10;0.10;;;;;;;22.93;100.00;99593.44;5064182;28;20578;-62
2023/08/25 01:58:27;;;;;;;0.10;0.10;;;;;;;22.92;100.00;99597.16;5068485;28;20059;-62
2023/08/25 02:00:53;;;;;;;0.10;0.10;;;;;;;22.91;100.00;99592.75;5063637;28;20024;-62
2023/08/25 02:03:18;;;;;;;0.10;0.10;;;;;;;22.90;100.00;99585.56;5048649;28;20035;-62
2023/08/25 02:05:44;;;;;;;0.10;0.10;;;;;;;22.89;100.00;99578.44;5057969;28;20358;-62
2023/08/25 02:08:09;;;;;;;0.10;0.10;;;;;;;22.87;100.00;99575.00;5046696;28;20428;-63
2023/08/25 02:10:34;;;;;;;0.00;0.00;;;;;;;22.86;100.00;99577.88;5048342;28;20032;-62
2023/08/25 02:13:00;;;;;;;0.10;0.10;;;;;;;22.79;100.00;99561.28;5069968;28;20048;-62
2023/08/25 02:15:25;;;;;;;0.10;0.10;;;;;;;22.75;100.00;99559.81;5064967;28;20107;-62
2023/08/25 02:17:50;;;;;;;0.10;0.10;;;;;;;22.70;100.00;99561.25;5060603;28;20036;-63
2023/08/25 02:20:16;;;;;;;0.10;0.10;;;;;;;22.70;100.00;99558.53;5064904;28;20081;-63
2023/08/25 02:22:41;;;;;;;0.10;0.10;;;;;;;22.75;100.00;99554.41;5057326;28;20078;-62
2023/08/25 02:25:07;;;;;;;0.10;0.10;;;;;;;22.76;100.00;99552.56;5067781;28;20085;-62
2023/08/25 02:27:32;;;;;;;0.10;0.10;;;;;;;22.73;100.00;99553.72;5050762;28;20100;-62
2023/08/25 02:29:58;;;;;;;0.10;0.10;;;;;;;22.73;100.00;99561.84;5030056;28;20044;-62
2023/08/25 02:32:23;;;;;;;0.10;0.10;;;;;;;22.82;100.00;99554.72;5057899;28;20021;-62
2023/08/25 02:34:49;;;;;;;0.10;0.10;;;;;;;22.79;100.00;99561.28;5067020;28;20508;-62
2023/08/25 02:37:14;;;;;;;0.10;0.10;;;;;;;22.74;100.00;99552.69;5067619;28;20028;-62
2023/08/25 02:39:39;;;;;;;0.10;0.10;;;;;;;22.70;100.00;99534.97;5066440;28;20071;-62
2023/08/25 02:42:05;;;;;;;0.10;0.10;;;;;;;22.69;100.00;99532.41;5047980;28;20032;-62
2023/08/25 02:44:31;;;;;;;0.10;0.10;;;;;;;22.65;100.00;99529.09;5048157;28;20029;-63
2023/08/25 02:46:56;;;;;;;0.10;0.10;;;;;;;22.63;100.00;99528.41;5059522;28;20055;-62
2023/08/25 02:49:22;;;;;;;0.10;0.10;;;;;;;22.63;100.00;99527.53;5068004;28;20029;-62
2023/08/25 02:51:47;;;;;;;0.10;0.10;;;;;;;22.60;100.00;99523.25;5064504;28;20036;-63
2023/08/25 02:54:12;;;;;;;0.10;0.10;;;;;;;22.51;100.00;99509.63;5048705;28;20025;-63
2023/08/25 02:56:38;;;;;;;0.10;0.10;;;;;;;22.48;100.00;99508.06;5067826;28;20024;-62
2023/08/25 02:59:03;;;;;;;0.10;0.10;;;;;;;22.47;100.00;99506.31;5067288;28;20449;-62
2023/08/25 03:01:29;;;;;;;0.10;0.10;;;;;;;22.43;100.00;99494.06;5062748;28;20573;-63
2023/08/25 03:03:55;;;;;;;0.10;0.10;;;;;;;22.38;100.00;99495.44;5054337;28;20035;-62
2023/08/25 03:06:20;;;;;;;0.10;0.10;;;;;;;22.33;100.00;99487.75;5051647;28;20028;-63
2023/08/25 03:08:46;;;;;;;0.10;0.10;;;;;;;22.39;100.00;99480.94;5054378;28;20035;-63
2023/08/25 03:11:11;;;;;;;0.10;0.10;;;;;;;22.35;100.00;99480.34;5051873;28;20067;-62
2023/08/25 03:13:37;;;;;;;0.10;0.10;;;;;;;22.30;100.00;99474.47;5065260;28;20059;-63
2023/08/25 03:16:02;;;;;;;0.10;0.10;;;;;;;22.29;100.00;99472.72;5076512;28;20026;-62
2023/08/25 03:18:28;;;;;;;0.10;0.10;;;;;;;22.27;100.00;99466.63;5086049;28;20376;-63
2023/08/25 03:20:54;;;;;;;0.10;0.10;;;;;;;22.27;100.00;99463.91;5091888;28;20558;-63
2023/08/25 03:23:20;;;;;;;0.10;0.10;;;;;;;22.24;100.00;99466.88;5075708;28;20097;-62
2023/08/25 03:25:46;;;;;;;0.10;0.10;;;;;;;22.23;100.00;99465.16;5074117;28;20032;-62
2023/08/25 03:28:11;;;;;;;0.10;0.10;;;;;;;22.21;100.00;99459.00;5071626;28;20035;-63
2023/08/25 03:30:37;;;;;;;0.10;0.10;;;;;;;22.13;100.00;99448.00;5073748;28;20029;-63
2023/08/25 03:33:05;;;;;;;0.10;0.10;;;;;;;22.05;100.00;99455.94;5077128;28;20069;-62
2023/08/25 03:35:35;;;;;;;0.10;0.10;;;;;;;21.97;100.00;99455.78;5082350;28;20419;-63
2023/08/25 03:38:01;;;;;;;0.10;0.10;;;;;;;21.90;100.00;99446.47;5078550;28;20028;-63
2023/08/25 03:40:26;;;;;;;0.10;0.10;;;;;;;21.84;100.00;99450.59;5089984;28;20024;-62
2023/08/25 03:42:52;;;;;;;0.10;0.10;;;;;;;21.76;100.00;99438.69;5072845;28;20111;-62
2023/08/25 03:45:17;;;;;;;0.10;0.10;;;;;;;21.77;100.00;99451.25;5071450;28;20028;-63
2023/08/25 03:47:43;;;;;;;0.10;0.10;;;;;;;21.73;100.00;99447.91;5073527;28;20028;-62
2023/08/25 03:50:09;;;;;;;0.10;0.10;;;;;;;21.68;100.00;99442.03;5070256;28;20139;-62
2023/08/25 03:52:34;;;;;;;0.10;0.10;;;;;;;21.68;100.00;99450.16;5072190;28;20074;-62
2023/08/25 03:55:00;;;;;;;0.10;0.10;;;;;;;21.69;100.00;99449.19;5078877;28;20027;-63
2023/08/25 03:57:25;;;;;;;0.10;0.10;;;;;;;21.68;100.00;99452.88;5086745;28;20020;-62
2023/08/25 03:59:50;;;;;;;0.10;0.10;;;;;;;21.68;100.00;99447.44;5090492;28;20038;-62
2023/08/25 04:02:16;;;;;;;0.10;0.10;;;;;;;21.73;100.00;99453.31;5088883;28;20028;-62
2023/08/25 04:04:41;;;;;;;0.10;0.10;;;;;;;21.73;100.00;99438.94;5087509;28;20020;-63
2023/08/25 04:07:07;;;;;;;0.10;0.10;;;;;;;21.81;100.00;99441.88;5090226;28;20073;-62
2023/08/25 04:09:33;;;;;;;0.10;0.10;;;;;;;21.82;100.00;99432.75;5081708;28;20448;-62
2023/08/25 04:11:58;;;;;;;0.10;0.10;;;;;;;21.83;100.00;99442.56;5070023;28;20120;-63
2023/08/25 04:14:24;;;;;;;0.10;0.10;;;;;;;21.85;100.00;99437.88;5069742;28;20420;-62
2023/08/25 04:16:49;;;;;;;0.10;0.10;;;;;;;21.86;100.00;99442.31;5071904;28;20020;-62
2023/08/25 04:19:16;;;;;;;0.10;0.10;;;;;;;21.87;100.00;99431.34;5084199;28;20032;-62
2023/08/25 04:21:43;;;;;;;0.10;0.10;;;;;;;21.91;100.00;99426.53;5090043;28;20032;-62
2023/08/25 04:24:09;;;;;;;0.10;0.10;;;;;;;21.92;100.00;99422.81;5086198;28;20507;-63
2023/08/25 04:26:34;;;;;;;0.10;0.10;;;;;;;21.89;100.00;99426.66;5089424;28;20046;-62
2023/08/25 04:28:59;;;;;;;0.10;0.10;;;;;;;;;;5090506;28;20115;-62
2023/08/25 04:31:25;;;;;;;0.10;0.10;;;;;;;21.80;100.00;99423.91;5073939;28;20036;-63
2023/08/25 04:33:50;;;;;;;0.10;0.10;;;;;;;21.75;100.00;99420.69;5085434;28;20028;-62
2023/08/25 04:36:15;;;;;;;0.10;0.10;;;;;;;21.71;100.00;99430.94;5082064;28;20024;-63
2023/08/25 04:38:41;;;;;;;0.10;0.10;;;;;;;21.70;100.00;99429.22;5077471;28;20020;-62
2023/08/25 04:41:06;;;;;;;0.10;0.10;;;;;;;21.69;100.00;99432.06;5090545;28;20483;-62
2023/08/25 04:43:32;;;;;;;0.10;0.10;;;;;;;21.70;100.00;99428.34;5065536;28;20028;-63
2023/08/25 04:45:57;;;;;;;0.10;0.10;;;;;;;21.72;100.00;99431.81;5089266;28;20024;-62
2023/08/25 04:48:23;;;;;;;0.10;0.10;;;;;;;21.76;100.00;99433.25;5089486;28;20038;-62
2023/08/25 04:50:49;;;;;;;0.10;0.10;;;;;;;21.78;100.00;99436.69;5087492;28;20073;-62
2023/08/25 04:53:14;;;;;;;0.10;0.10;;;;;;;21.79;100.00;99435.72;5070001;28;20044;-62
2023/08/25 04:55:40;;;;;;;0.10;0.10;;;;;;;21.82;100.00;99451.69;5080961;28;20394;-62
2023/08/25 04:58:05;;;;;;;0.10;0.10;;;;;;;21.85;100.00;99459.56;5069629;28;20070;-63
2023/08/25 05:00:31;;;;;;;0.10;0.10;;;;;;;22.01;100.00;99482.44;5072122;28;20114;-62
2023/08/25 05:02:56;;;;;;;0.10;0.10;;;;;;;22.06;100.00;99523.53;5074164;28;20020;-62
2023/08/25 05:05:21;;;;;;;0.10;0.10;;;;;;;22.17;100.00;99547.00;5089699;28;20111;-62
2023/08/25 05:07:47;;;;;;;0.10;0.10;;;;;;;22.19;100.00;99575.66;5078363;28;20090;-62
2023/08/25 05:10:12;;;;;;;0.10;0.10;;;;;;;22.26;100.00;99597.66;5072145;28;20025;-62
2023/08/25 05:12:39;;;;;;;0.10;0.10;;;;;;;22.34;100.00;99607.84;5069683;28;20048;-61
2023/08/25 05:15:06;;;;;;;0.10;0.10;;;;;;;22.39;100.00;99617.28;5069741;28;20392;-62
2023/08/25 05:17:31;;;;;;;0.10;0.10;;;;;;;22.40;100.00;99624.44;5069088;28;20036;-62
2023/08/25 05:19:57;;;;;;;0.10;0.10;;;;;;;22.44;100.00;99631.28;5082152;28;20020;-62
2023/08/25 05:22:22;;;;;;;0.10;0.10;;;;;;;22.37;100.00;99665.34;5089537;28;20476;-62
2023/08/25 05:24:48;;;;;;;0.10;0.10;;;;;;;22.30;100.00;99737.34;5085159;28;20031;-62
2023/08/25 05:27:13;;;;;;;0.10;0.10;;;;;;;22.24;100.00;99770.34;5089483;28;20097;-62
2023/08/25 05:29:38;;;;;;;0.10;0.10;;;;;;;22.18;100.00;99776.28;5089357;28;20061;-62
2023/08/25 05:32:04;;;;;;;0.10;0.10;;;;;;;22.22;100.00;99878.03;5084936;28;20024;-61
2023/08/25 05:34:31;;;;;;;0.10;0.10;;;;;;;22.22;100.00;99874.44;5075122;28;20770;-61
2023/08/25 05:36:56;;;;;;;0.10;0.10;;;;;;;22.11;100.00;99831.97;5069055;28;20470;-65
2023/08/25 05:39:22;;;;;;;0.10;0.10;;;;;;;21.92;100.00;99835.34;5068978;28;20028;-63
2023/08/25 05:41:47;;;;;;;0.10;0.10;;;;;;;21.79;100.00;99829.22;5070542;28;20058;-63
2023/08/25 05:44:13;;;;;;;0.10;0.10;;;;;;;21.68;100.00;99822.94;5071177;28;20031;-65
2023/08/25 05:46:39;;;;;;;0.10;0.10;;;;;;;21.65;100.00;99809.59;5078857;28;20096;-63
2023/08/25 05:49:05;;;;;;;0.20;0.20;;;;;;;21.66;100.00;99805.94;5086941;28;20030;-60
2023/08/25 05:51:31;;;;;;;0.10;0.10;;;;;;;21.62;100.00;99794.50;5080160;28;20016;-59
2023/08/25 05:53:56;;;;;;;0.10;0.10;;;;;;;21.58;100.00;99743.44;5066740;28;20024;-60
2023/08/25 05:56:22;;;;;;;0.10;0.10;;;;;;;21.52;100.00;99703.31;5067312;28;20054;-60
2023/08/25 05:58:47;;;;;;;0.10;0.10;;;;;;;21.50;100.00;99689.09;5066770;28;20039;-60
2023/08/25 06:01:12;;;;;;;0.10;0.10;;;;;;;21.40;100.00;99698.94;5069932;28;20029;-60
2023/08/25 06:03:39;;;;;;;0.10;0.10;;;;;;;21.31;100.00;99699.66;5071944;28;20690;-61
2023/08/25 06:06:04;;;;;;;0.10;0.10;;;;;;;21.19;100.00;99696.13;5070244;28;20070;-61
2023/08/25 06:08:30;;;;;;;0.10;0.10;;;;;;;21.13;100.00;99693.06;5076060;28;20031;-62
2023/08/25 06:10:56;;;;;;;0.10;0.10;;;;;;;21.12;100.00;99664.28;5071123;28;20215;-63
2023/08/25 06:13:22;;;;;;;0.10;0.10;;;;;;;21.12;100.00;99681.34;5070708;28;20431;-63
2023/08/25 06:15:48;;;;;;;0.10;0.10;;;;;;;21.18;100.00;99677.31;5068171;28;20142;-63
2023/08/25 06:18:14;;;;;;;0.10;0.10;;;;;;;21.17;100.00;99695.38;5078412;28;20058;-63
2023/08/25 06:20:40;;;;;;;0.10;0.10;;;;;;;21.16;100.00;99709.91;5068770;28;20473;-63
2023/08/25 06:23:06;;;;;;;0.10;0.10;;;;;;;21.25;100.00;99708.31;5073904;28;20044;-63
2023/08/25 06:25:31;;;;;;;0.10;0.10;;;;;;;21.21;100.00;99714.94;5068458;28;20029;-64
2023/08/25 06:27:57;;;;;;;0.10;0.10;;;;;;;21.28;100.00;99724.28;5069768;28;20032;-64
2023/08/25 06:30:23;;;;;;;0.17;0.17;;;;;;;21.28;100.00;99740.50;5071458;28;20071;-63
2023/08/25 06:32:49;;;;;;;0.20;0.20;;;;;;;21.32;100.00;99736.56;5072641;28;20020;-64
2023/08/25 06:35:15;;;;;;;0.10;0.10;;;;;;;21.37;100.00;99723.50;5074541;28;20039;-65
2023/08/25 06:37:40;;;;;;;0.10;0.10;;;;;;;21.40;100.00;99734.13;5074500;28;20033;-64
2023/08/25 06:40:09;;;;;;;0.20;0.20;;;;;;;21.38;100.00;99752.31;5077643;28;20032;-64
2023/08/25 06:42:35;;;;;;;0.10;0.10;;;;;;;21.42;100.00;99770.00;5075863;28;20084;-64
2023/08/25 06:45:00;;;;;;;0.10;0.10;;;;;;;21.45;100.00;99750.84;5080989;28;20969;-64
2023/08/25 06:47:30;;;;;;;0.10;0.10;;;;;;;21.49;100.00;99755.00;5076493;28;20123;-65
2023/08/25 06:49:56;;;;;;;0.17;0.17;;;;;;;21.53;100.00;99751.91;5074121;28;20028;-65
2023/08/25 06:52:21;;;;;;;0.10;0.10;;;;;;;21.54;100.00;99736.53;5076387;28;20393;-64
2023/08/25 06:54:47;;;;;;;0.13;0.13;;;;;;;21.54;100.00;99750.94;5076581;28;20039;-64
2023/08/25 06:57:12;;;;;;;0.20;0.20;;;;;;;21.58;100.00;99759.69;5074857;28;20116;-63
2023/08/25 06:59:38;;;;;;;0.10;0.10;;;;;;;21.57;100.00;99757.94;5074715;28;20045;-62
2023/08/25 07:02:03;;;;;;;0.20;0.20;;;;;;;21.53;100.00;99778.16;5083799;28;20028;-62
2023/08/25 07:04:29;;;;;;;0.20;0.20;;;;;;;21.51;100.00;99774.69;5082814;28;20484;-64
2023/08/25 07:06:55;;;;;;;0.10;0.10;;;;;;;21.58;100.00;99744.28;5087957;28;20035;-64
2023/08/25 07:09:20;;;;;;;0.13;0.13;;;;;;;21.56;100.00;99746.28;5073919;28;20471;-64
2023/08/25 07:11:46;;;;;;;0.20;0.20;;;;;;;21.55;100.00;99738.25;5077599;28;20038;-65
2023/08/25 07:14:11;;;;;;;0.20;0.20;;;;;;;21.61;100.00;99721.53;5088141;28;20085;-65
2023/08/25 07:16:36;;;;;;;0.20;0.20;;;;;;;21.56;100.00;99731.88;5091628;28;20035;-64
2023/08/25 07:19:02;;;;;;;0.20;0.20;;;;;;;21.59;100.00;99718.09;5089892;28;20441;-63
2023/08/25 07:21:27;;;;;;;0.20;0.20;;;;;;;21.54;100.00;99723.00;5081645;28;20058;-64
2023/08/25 07:23:53;;;;;;;0.13;0.13;;;;;;;21.57;100.00;99736.28;5081697;28;20038;-62
2023/08/25 07:26:18;;;;;;;0.20;0.20;;;;;;;21.59;100.00;99726.19;5089446;28;20024;-62
2023/08/25 07:28:43;;;;;;;0.10;0.10;;;;;;;21.61;100.00;99721.53;5093110;28;20016;-62
2023/08/25 07:31:09;;;;;;;0.13;0.13;;;;;;;21.65;100.00;99750.06;5094329;28;20084;-63
2023/08/25 07:33:34;;;;;;;0.20;0.20;;;;;;;21.62;100.00;99723.25;5080049;28;20029;-63
2023/08/25 07:36:03;;;;;;;0.20;0.20;;;;;;;21.61;100.00;99733.22;5089697;28;20032;-65
2023/08/25 07:38:29;;;;;;;0.13;0.13;;;;;;;21.60;100.00;99726.06;5090567;28;20044;-65
2023/08/25 07:40:55;;;;;;;0.15;0.15;;;;;;;21.58;100.00;99724.50;5077432;28;20089;-63
2023/08/25 07:43:21;;;;;;;0.17;0.17;;;;;;;21.50;100.00;99697.19;5075489;28;20039;-64
2023/08/25 07:45:46;;;;;;;0.10;0.10;;;;;;;21.47;100.00;99692.00;5091661;28;20028;-63
2023/08/25 07:48:11;;;;;;;0.10;0.10;;;;;;;21.46;100.00;99696.59;5088096;28;20036;-63
2023/08/25 07:50:37;;;;;;;0.15;0.15;;;;;;;21.49;100.00;99684.63;5071851;28;20032;-64
2023/08/25 07:53:03;;;;;;;0.10;0.10;;;;;;;21.49;100.00;99668.41;5085404;28;20047;-66
2023/08/25 07:55:28;;;;;;;0.20;0.20;;;;;;;21.44;100.00;99667.91;5082352;28;20029;-65
2023/08/25 07:57:54;;;;;;;0.10;0.10;;;;;;;21.53;100.00;99659.06;5071060;28;20107;-65
2023/08/25 08:00:19;;;;;;;0.20;0.20;;;;;;;21.71;100.00;99662.94;5071195;28;20115;-63
2023/08/25 08:02:46;;;;;;;0.20;0.20;;;;;;;21.65;100.00;99658.00;5079690;28;20024;-64
2023/08/25 08:05:12;;;;;;;0.10;0.10;;;;;;;21.62;100.00;99651.00;5088208;28;20077;-65
2023/08/25 08:07:38;;;;;;;0.20;0.20;;;;;;;21.69;100.00;99632.41;5076969;28;20031;-64
2023/08/25 08:10:05;;;;;;;0.20;0.20;;;;;;;21.73;100.00;99628.47;5071496;28;20114;-63
2023/08/25 08:12:30;;;;;;;0.20;0.20;;;;;;;21.73;100.00;99607.66;5084883;28;20164;-63
2023/08/25 08:14:56;;;;;;;0.20;0.20;;;;;;;21.80;100.00;99586.34;5072914;28;20511;-65
2023/08/25 08:17:22;;;;;;;0.10;0.10;;;;;;;21.85;100.00;99571.44;5082146;28;20165;-64
2023/08/25 08:19:48;;;;;;;0.10;0.10;;;;;;;21.84;100.00;99574.28;5087995;28;20039;-63
2023/08/25 08:22:14;;;;;;;0.20;0.20;;;;;;;21.87;100.00;99568.59;5076456;28;20107;-63
2023/08/25 08:24:41;;;;;;;0.10;0.10;;;;;;;21.97;100.00;99558.69;5072055;28;20154;-63
2023/08/25 08:27:07;;;;;;;0.20;0.20;;;;;;;22.01;100.00;99549.28;5085224;28;20695;-63
2023/08/25 08:29:33;;;;;;;0.10;0.10;;;;;;;22.04;100.00;99546.34;5088523;28;20024;-64
2023/08/25 08:31:58;;;;;;;0.10;0.10;;;;;;;22.05;100.00;99537.22;5066095;28;20043;-63
2023/08/25 08:34:23;;;;;;;0.10;0.10;;;;;;;22.10;100.00;99553.94;5089398;28;20051;-63
2023/08/25 08:36:49;;;;;;;0.20;0.20;;;;;;;22.24;100.00;99556.28;5088844;28;20020;-63
2023/08/25 08:39:15;;;;;;;0.20;0.20;;;;;;;22.20;100.00;99568.41;5085442;28;20543;-63
2023/08/25 08:41:41;;;;;;;0.20;0.20;;;;;;;22.32;100.00;99570.03;5088515;28;20487;-63
2023/08/25 08:44:09;;;;;;;0.10;0.10;;;;;;;22.33;100.00;99546.50;5079766;28;20488;-64
2023/08/25 08:46:36;;;;;;;0.10;0.10;;;;;;;22.36;100.00;99519.09;5069076;28;20028;-63
2023/08/25 08:49:02;;;;;;;0.20;0.20;;;;;;;22.38;100.00;99490.91;5069900;28;20055;-63
2023/08/25 08:51:29;;;;;;;0.13;0.13;;;;;;;22.46;100.00;99463.09;5076979;28;20024;-64
2023/08/25 08:53:55;;;;;;;0.10;0.10;;;;;;;22.58;100.00;99443.06;5090215;28;20237;-63
2023/08/25 08:56:22;;;;;;;0.13;0.13;;;;;;;22.59;100.00;99415.81;5089793;28;20487;-63
2023/08/25 08:58:48;;;;;;;0.10;0.10;;;;;;;22.61;100.00;99483.44;5089659;28;20586;-63
2023/08/25 09:01:15;;;;;;;0.10;0.10;;;;;;;22.64;100.00;99477.72;5076728;28;20021;-63
2023/08/25 09:03:42;;;;;;;0.20;0.20;;;;;;;22.63;100.00;99476.03;5080551;28;20024;-64
2023/08/25 09:06:08;;;;;;;0.10;0.10;;;;;;;22.68;100.00;99530.69;5083827;28;20024;-63
2023/08/25 09:08:36;;;;;;;0.15;0.15;;;;;;;22.70;100.00;99513.28;5069549;28;20031;-63
2023/08/25 09:11:03;;;;;;;0.10;0.10;;;;;;;22.74;100.00;99539.16;5069239;28;20037;-63
2023/08/25 09:13:35;;;;;;;0.10;0.10;;;;;;;22.82;100.00;99550.16;5071790;28;20063;-63
2023/08/25 09:16:14;;;;;;;0.10;0.10;;;;;;;22.93;100.00;99582.59;5069546;28;20543;-62
2023/08/25 09:18:40;;;;;;;0.17;0.17;;;;;;;23.02;100.00;99616.19;5069696;28;20097;-63
2023/08/25 09:21:26;;;;;;;0.10;0.10;;;;;;;23.13;100.00;99619.63;5071976;28;20088;-63
2023/08/25 09:23:54;;;;;;;0.10;0.10;;;;;;;23.22;100.00;99617.94;5068623;28;20044;-63
2023/08/25 09:26:20;;;;;;;0.10;0.10;;;;;;;23.33;100.00;99626.88;5088418;28;20055;-63
2023/08/25 09:28:45;;;;;;;0.10;0.10;;;;;;;23.37;100.00;99617.47;5088932;28;20056;-63
2023/08/25 09:31:25;;;;;;;0.17;0.17;;;;;;;23.43;100.00;99610.59;5086235;28;20367;-63
2023/08/25 09:33:57;;;;;;;0.10;0.10;;;;;;;23.46;100.00;99604.03;5088946;28;20020;-62
2023/08/25 09:36:23;;;;;;;0.10;0.10;;;;;;;23.45;100.00;99619.47;5080994;28;20051;-62
2023/08/25 09:38:48;;;;;;;0.10;0.10;;;;;;;23.44;100.00;99624.03;5068556;28;20472;-63
2023/08/25 09:41:23;;;;;;;0.10;0.10;;;;;;;23.43;100.00;99616.88;5068497;28;20028;-63
2023/08/25 09:43:49;;;;;;;0.10;0.10;;;;;;;23.53;100.00;99607.88;5086354;28;20052;-62
2023/08/25 09:46:14;;;;;;;0.10;0.10;;;;;;;23.57;100.00;99601.19;5088515;28;20051;-62
2023/08/25 09:48:40;;;;;;;0.10;0.10;;;;;;;23.58;100.00;99597.47;5088296;28;20020;-63
2023/08/25 09:51:06;;;;;;;0.10;0.10;;;;;;;23.66;100.00;99598.47;5083519;28;20032;-62
2023/08/25 09:53:33;;;;;;;0.10;0.10;;;;;;;23.73;100.00;99601.47;5069079;28;20372;-63
2023/08/25 09:56:06;;;;;;;0.10;0.10;;;;;;;23.83;100.00;99611.34;5084479;28;20031;-62
2023/08/25 09:58:33;;;;;;;;;;;;;;;23.90;100.00;99609.78;5071782;28;20031;-63
2023/08/25 10:00:59;;;;;;;0.10;0.10;;;;;;;23.95;100.00;99617.50;5068371;28;20308;-62
2023/08/25 10:03:26;;;;;;;0.10;0.10;;;;;;;24.07;100.00;99621.81;5077604;28;20024;-62
2023/08/25 10:05:52;;;;;;;0.13;0.13;;;;;;;24.30;100.00;99634.09;5089128;28;20085;-62
2023/08/25 10:08:18;;;;;;;0.10;0.10;;;;;;;24.71;100.00;99643.75;5087346;28;20703;-63
2023/08/25 10:10:45;;;;;;;0.10;0.10;;;;;;;24.99;100.00;99651.78;5069692;28;20028;-63
2023/08/25 10:13:15;;;;;;;0.10;0.10;;;;;;;25.22;100.00;99661.28;5068460;28;20052;-64
2023/08/25 10:15:42;;;;;;;0.10;0.10;;;;;;;25.44;100.00;99669.09;5077515;28;20019;-63
2023/08/25 10:18:09;;;;;;;0.10;0.10;;;;;;;25.62;100.00;99671.84;5088701;28;20115;-63
2023/08/25 10:20:37;;;;;;;0.10;0.10;;;;;;;25.84;99.89;99675.00;5087680;28;20047;-63
2023/08/25 10:23:04;;;;;;;0.10;0.10;;;;;;;25.98;97.69;99668.13;5088201;28;20791;-63
2023/08/25 10:25:30;;;;;;;0.10;0.10;;;;;;;26.06;95.99;99662.81;5072291;28;20024;-64
2023/08/25 10:27:57;;;;;;;0.10;0.10;;;;;;;25.98;94.64;99649.91;5067121;28;20066;-63
2023/08/25 10:30:24;;;;;;;0.10;0.10;;;;;;;26.00;95.84;99662.56;5068970;28;20107;-63
2023/08/25 10:33:04;;;;;;;0.10;0.10;;;;;;;25.83;95.28;99673.28;5076012;28;20032;-64
2023/08/25 10:35:44;;;;;;;0.10;0.10;;;;;;;25.74;95.33;99676.94;5084891;28;20036;-62
2023/08/25 10:38:18;;;;;;;0.10;0.10;;;;;;;25.76;95.83;99669.47;5067861;28;20499;-63
2023/08/25 10:40:55;;;;;;;0.10;0.10;;;;;;;25.72;94.51;99670.78;5086453;28;20028;-62
2023/08/25 10:43:25;;;;;;;0.10;0.10;;;;;;;25.89;94.31;99650.88;5085488;28;20023;-62
2023/08/25 10:45:52;;;;;;;0.10;0.10;;;;;;;25.91;93.82;99654.28;5077681;28;20043;-63
2023/08/25 10:48:19;;;;;;;0.10;0.10;;;;;;;25.80;92.61;99646.34;5073197;28;20028;-62
2023/08/25 10:50:45;;;;;;;0.10;0.10;;;;;;;25.85;92.89;99678.56;5084805;28;20028;-63
2023/08/25 10:53:42;;;;;;;0.10;0.10;;;;;;;25.85;92.54;99660.34;5066971;28;20044;-62
2023/08/25 10:56:23;;;;;;;0.10;0.10;;;;;;;25.94;92.85;99675.78;5081837;28;20535;-63
2023/08/25 10:58:59;;;;;;;0.10;0.10;;;;;;;25.79;90.03;99676.47;5057571;28;20040;-62
2023/08/25 11:01:37;;;;;;;0.10;0.10;;;;;;;25.78;90.86;99682.94;5066839;28;20099;-63
2023/08/25 11:04:08;;;;;;;0.10;0.10;;;;;;;25.72;89.44;99668.06;5072035;28;20441;-62
2023/08/25 11:06:43;;;;;;;0.10;0.10;;;;;;;25.72;90.87;99662.59;5068040;28;20064;-61
2023/08/25 11:09:11;;;;;;;0.10;0.10;;;;;;;25.71;90.25;99674.53;5067380;28;20559;-63
2023/08/25 11:11:41;;;;;;;0.10;0.10;;;;;;;25.64;89.53;99670.69;5070412;28;20025;-62
2023/08/25 11:14:06;;;;;;;0.10;0.10;;;;;;;25.56;89.97;99662.44;5067814;28;20476;-62
2023/08/25 11:16:32;;;;;;;0.10;0.10;;;;;;;25.59;91.49;99664.84;5069585;28;20029;-63
2023/08/25 11:18:57;;;;;;;0.10;0.10;;;;;;;25.64;92.74;99667.97;5067905;28;20037;-62
2023/08/25 11:21:24;;;;;;;0.10;0.10;;;;;;;25.61;89.58;99653.78;5067524;28;20032;-61
2023/08/25 11:23:49;;;;;;;0.10;0.10;;;;;;;25.67;89.67;99647.72;5082011;28;20021;-63
2023/08/25 11:26:18;;;;;;;0.10;0.10;;;;;;;25.69;89.42;99641.13;5052101;28;20070;-62